Tropical Cyclones
[Index]
Main Index Home Page Stock Weather Photos Extreme Storms Discussion Storm News and Storm Chasing Reports Tropical Cyclones / Hurricanes / Typhoons Weather Data and Links Wild Fires / Bushfires Weather Observation Techniques Weather Picture Catalogue Tornado Pictures and Reports Stock Video Footage and DVDs for sale
Season 1988-1989 Tropical Cyclone JOHN Track Map
Season 1988-1989 Summaries: [BoM-AU] [JTWC-AU] [JTWC-SIO] [JTWC-SPAC] [JTWC-SH]
<<- Previous TC | BoM 1988-1989 Season | Next TC ->>

click for intensity scale information  Lat/long Grid: Show Hide

 Date Labels: Show Hide

Bureau of Meteorology Tropical Cyclone Data

Name: JOHN
Number: 709 / 198889_03

23 Jan 1989 06:00 UTC to 02 Feb 1989 06:00 UTC

    date/time    lat    long    hPa   cat  kts
1989-01-23 06    7.6   103.3   1004                     
1989-01-23 12    8.2   103.6   1004                     
1989-01-23 18    8.7   103.8   1004                     
1989-01-24 00    9.4   104.0   1004                     
1989-01-24 06   10.2   103.4   1003                     
1989-01-24 12   10.6   102.5   1002         21          
1989-01-24 18   10.8   101.4   1001         23          
1989-01-25 00   11.2   100.4   1000         25          
1989-01-25 06   11.4    99.7    999         27          
1989-01-25 12   11.6    98.8    999         27          
1989-01-25 15   11.7    98.4    998         29          
1989-01-25 18   11.8    98.1    997         31          
1989-01-25 21   11.9    97.6    997         31          
1989-01-26 00   12.0    97.1    997         31          
1989-01-26 03   12.0    96.8    997         31          
1989-01-26 06   12.0    96.7    996         33          
1989-01-26 09   12.0    96.5    995    1    35          
1989-01-26 12   12.1    96.3    994    1    35          
1989-01-26 15   12.2    96.2    992    1    39          
1989-01-26 18   12.2    96.0    991    1    41          
1989-01-27 00   12.3    95.7    990    1    41          
1989-01-27 06   12.4    95.0    990    1    41          
1989-01-27 12   13.0    94.0    990    1    41          
1989-01-27 18   13.6    94.9    990    1    41          
1989-01-28 00   14.2    96.0    990    1    41          
1989-01-28 06   15.3    97.2    992    1    39          
1989-01-28 12   16.4    98.3    993    1    37          
1989-01-28 18   17.6    99.6    995    1    35          
1989-01-29 00   18.9   100.8    997         31          
1989-01-29 06   19.5   101.0    997         31          
1989-01-29 12   20.2   101.2    998         29          
1989-01-29 18   20.8   101.3    998         29          
1989-01-30 00   21.5   101.6    998         29          
1989-01-30 06   22.1   101.9    999         27          
1989-01-30 12   22.8   102.2    999         27          
1989-01-30 18   23.6   102.5   1000         25          
1989-01-31 00   24.3   102.7   1000         25          
1989-01-31 06   25.0   103.0   1000         25          
1989-01-31 12   25.3   103.8   1001         23          
1989-01-31 18   25.7   104.8   1001         23          
1989-02-01 00   26.3   105.6   1002         21          
1989-02-01 06   26.9   106.0   1002         21          
1989-02-01 12   26.6   105.6   1004                     
1989-02-01 18   26.3   105.3   1006                     
1989-02-02 00   26.0   105.0   1008                     
1989-02-02 06   25.9   104.1   1008                     
Winds are 10-min average.

Tropical cyclone tracks developed by Michael Bath using data from the Bureau of Meteorology and Google Maps.


[Australian Severe Weather index] [Copyright Notice] [Email Contacts] [Search This Site] [Privacy Policy]
Document: tropical_cyclone_john.htm Updated: 30 May 2013